Time;durP1;ratioP1;P1;durP2;ratioP2;P2;SDS_P1;SDS_P2;PMS_P1;PMS_P2;Temp;Humidity;BMP_temperature;BMP_pressure;BME280_temperature;BME280_humidity;BME280_pressure;Samples;Min_cycle;Max_cycle;Signal;HPM_P1;HPM_P2
2022/01/22 00:00:42;;;;;;;20.57;16.07;;;4.90;99.90;;;;;;5068972;28;20192;-70
2022/01/22 00:03:08;;;;;;;16.60;14.70;;;5.00;99.90;;;;;;5072411;28;20203;-69
2022/01/22 00:05:34;;;;;;;22.03;13.80;;;4.90;99.90;;;;;;5071772;28;20593;-71
2022/01/22 00:07:59;;;;;;;16.73;13.87;;;5.00;99.90;;;;;;5073998;28;20172;-71
2022/01/22 00:10:25;;;;;;;17.03;13.73;;;5.10;99.90;;;;;;5073118;28;20420;-70
2022/01/22 00:15:22;;;;;;;22.77;15.80;;;5.10;99.90;;;;;;5053710;28;20299;-69
2022/01/22 00:17:48;;;;;;;16.70;13.37;;;5.10;99.90;;;;;;5052597;28;20210;-70
2022/01/22 00:20:16;;;;;;;19.63;14.90;;;5.10;99.90;;;;;;5052653;28;20513;-70
2022/01/22 00:22:42;;;;;;;17.77;13.93;;;5.00;99.90;;;;;;5052710;28;20990;-70
2022/01/22 00:25:10;;;;;;;18.50;16.10;;;4.90;99.90;;;;;;5053856;28;20562;-70
2022/01/22 00:27:37;;;;;;;17.60;15.67;;;4.90;99.90;;;;;;5051881;28;20449;-70
2022/01/22 00:30:05;;;;;;;20.70;15.57;;;5.00;99.90;;;;;;5053225;28;20538;-70
2022/01/22 00:35:03;;;;;;;18.30;15.00;;;5.00;99.90;;;;;;5072403;22;20488;-66
2022/01/22 00:37:28;;;;;;;16.73;14.83;;;5.00;99.90;;;;;;5059950;28;20471;-67
2022/01/22 00:39:54;;;;;;;24.77;15.20;;;5.10;99.90;;;;;;5065911;28;20788;-67
2022/01/22 00:42:21;;;;;;;18.30;14.30;;;5.20;99.90;;;;;;5056349;28;20179;-66
2022/01/22 00:44:49;;;;;;;16.33;14.37;;;5.20;99.90;;;;;;5074332;28;20270;-67
2022/01/22 00:47:15;;;;;;;18.70;14.80;;;5.20;99.90;;;;;;5073583;28;20923;-69
2022/01/22 00:49:41;;;;;;;16.50;14.80;;;5.30;99.90;;;;;;5072234;28;20426;-67
2022/01/22 00:52:07;;;;;;;16.57;13.77;;;5.30;99.90;;;;;;5072609;28;20423;-67
2022/01/22 00:54:32;;;;;;;19.50;14.43;;;5.30;99.90;;;;;;5073505;28;20223;-67
2022/01/22 00:56:58;;;;;;;14.97;13.37;;;5.40;99.90;;;;;;5047630;28;20213;-67
2022/01/22 00:59:23;;;;;;;16.20;12.90;;;5.40;99.90;;;;;;5048399;28;20179;-66
2022/01/22 01:01:49;;;;;;;17.03;13.10;;;5.40;99.90;;;;;;5056373;28;20264;-67
2022/01/22 01:04:15;;;;;;;15.13;13.50;;;5.40;99.90;;;;;;5056662;28;20273;-66
2022/01/22 01:06:41;;;;;;;17.30;12.60;;;5.40;99.90;;;;;;5056600;28;20408;-66
2022/01/22 01:09:08;;;;;;;18.30;13.43;;;5.40;99.90;;;;;;5056797;28;20252;-66
2022/01/22 01:11:39;;;;;;;15.20;13.60;;;5.40;99.90;;;;;;5067466;28;20177;-67
2022/01/22 01:14:08;;;;;;;13.67;12.17;;;5.40;99.90;;;;;;5061786;28;20443;-67
2022/01/22 01:35:12;;;;;;;13.77;11.57;;;5.40;99.90;;;;;;5076875;28;20434;-69
2022/01/22 01:37:37;;;;;;;12.87;10.87;;;5.40;99.90;;;;;;5074701;28;20420;-67
2022/01/22 01:40:06;;;;;;;11.50;10.30;;;5.30;99.90;;;;;;5076319;28;20501;-66
2022/01/22 01:42:47;;;;;;;13.47;11.60;;;5.10;99.90;;;;;;5074666;28;20178;-67
2022/01/22 01:45:13;;;;;;;13.07;11.67;;;5.10;99.90;;;;;;5076177;28;20402;-68
2022/01/22 01:47:41;;;;;;;11.67;10.10;;;5.10;99.90;;;;;;5075792;28;20403;-67
2022/01/22 01:50:07;;;;;;;13.43;12.03;;;5.20;99.90;;;;;;5075323;28;20668;-67
2022/01/22 01:52:46;;;;;;;11.93;10.73;;;5.20;99.90;;;;;;5075740;28;20404;-67
2022/01/22 01:55:17;;;;;;;12.40;10.83;;;5.30;99.90;;;;;;5074619;28;20418;-68
2022/01/22 01:57:43;;;;;;;12.80;10.77;;;5.30;99.90;;;;;;5075685;28;20768;-68
2022/01/22 02:00:17;;;;;;;12.87;11.57;;;5.30;99.90;;;;;;5075680;28;20817;-68
2022/01/22 02:02:45;;;;;;;12.37;10.97;;;5.30;99.90;;;;;;5075717;28;20775;-67
2022/01/22 02:05:11;;;;;;;12.07;10.77;;;5.30;99.90;;;;;;5073987;28;20412;-67
2022/01/22 02:07:39;;;;;;;11.80;10.37;;;5.30;99.90;;;;;;5068889;28;20432;-68
2022/01/22 02:10:13;;;;;;;12.47;11.17;;;5.30;99.90;;;;;;5062050;28;20512;-66
2022/01/22 02:23:45;;;;;;;12.40;10.67;;;5.10;99.90;;;;;;5076164;28;20804;-68
2022/01/22 02:26:13;;;;;;;12.33;9.93;;;5.20;99.90;;;;;;5057629;28;20455;-68
2022/01/22 02:28:39;;;;;;;11.80;10.43;;;5.20;99.90;;;;;;5054459;28;20470;-67
2022/01/22 02:31:13;;;;;;;11.13;9.93;;;5.10;99.90;;;;;;5054325;28;20789;-67
2022/01/22 02:33:51;;;;;;;12.60;10.40;;;5.10;99.90;;;;;;5055307;28;20462;-67
2022/01/22 02:36:23;;;;;;;12.50;10.17;;;5.20;99.90;;;;;;5062329;28;20466;-66
2022/01/22 02:39:09;;;;;;;11.77;10.57;;;5.10;99.90;;;;;;5072674;28;20415;-67
2022/01/22 02:41:37;;;;;;;12.90;11.43;;;4.90;99.90;;;;;;5056103;28;20510;-68
2022/01/22 02:44:03;;;;;;;12.37;11.03;;;5.00;99.90;;;;;;5057766;28;20533;-67
2022/01/22 02:46:31;;;;;;;16.63;13.67;;;5.00;99.90;;;;;;5058782;28;20846;-68
2022/01/22 02:48:56;;;;;;;18.03;12.97;;;5.10;99.90;;;;;;5060023;28;20416;-67
2022/01/22 02:51:24;;;;;;;15.30;12.13;;;5.00;99.90;;;;;;5058839;28;20431;-66
2022/01/22 02:53:55;;;;;;;19.50;14.07;;;5.00;99.90;;;;;;5058821;28;20690;-67
2022/01/22 02:56:22;;;;;;;17.50;13.53;;;5.00;99.90;;;;;;5055963;28;20479;-66
2022/01/22 02:58:49;;;;;;;18.03;14.13;;;5.10;99.90;;;;;;5055079;28;20417;-66
2022/01/22 03:01:16;;;;;;;22.27;15.67;;;5.20;99.90;;;;;;5056270;28;20429;-67
2022/01/22 03:03:42;;;;;;;17.80;15.10;;;5.20;99.90;;;;;;5063406;28;20504;-67
2022/01/22 03:06:08;;;;;;;20.33;15.57;;;5.20;99.90;;;;;;5074594;28;20401;-66
2022/01/22 03:08:34;;;;;;;17.77;14.60;;;5.30;99.90;;;;;;5074315;28;20687;-67
2022/01/22 03:11:04;;;;;;;17.13;14.50;;;5.20;99.90;;;;;;5075959;28;20430;-67
2022/01/22 03:14:13;;;;;;;16.70;13.70;;;5.10;99.90;;;;;;5073969;28;20255;-67
2022/01/22 03:19:14;;;;;;;17.70;14.97;;;4.80;99.90;;;;;;5053869;28;20422;-67
2022/01/22 03:21:56;;;;;;;16.63;14.27;;;4.80;99.90;;;;;;5057885;28;20422;-67
2022/01/22 03:27:23;;;;;;;21.93;15.47;;;4.60;99.90;;;;;;5053929;28;20393;-67
2022/01/22 03:29:50;;;;;;;20.67;16.00;;;4.60;99.90;;;;;;5052834;28;20429;-67
2022/01/22 03:32:17;;;;;;;20.40;16.67;;;4.60;99.90;;;;;;5055281;28;20912;-67
2022/01/22 03:34:55;;;;;;;20.70;16.63;;;4.70;99.90;;;;;;5054239;28;20455;-67
2022/01/22 03:37:21;;;;;;;23.23;17.30;;;4.70;99.90;;;;;;5052630;28;20440;-67
2022/01/22 03:39:47;;;;;;;23.33;18.07;;;4.70;99.90;;;;;;5053971;28;20405;-68
2022/01/22 03:42:12;;;;;;;23.83;17.30;;;4.70;99.90;;;;;;5054798;28;20428;-67
2022/01/22 03:44:38;;;;;;;21.63;16.47;;;4.70;99.90;;;;;;5072775;28;20663;-67
2022/01/22 03:47:04;;;;;;;23.33;16.63;;;4.70;99.90;;;;;;5073244;28;20184;-67
2022/01/22 03:49:31;;;;;;;24.40;17.00;;;4.70;99.90;;;;;;5074567;28;20186;-67
2022/01/22 03:51:56;;;;;;;22.60;17.73;;;4.80;99.90;;;;;;5074092;28;20422;-67
2022/01/22 03:54:22;;;;;;;23.00;16.63;;;4.80;99.90;;;;;;5071969;28;20973;-67
2022/01/22 03:56:48;;;;;;;19.50;15.77;;;4.70;99.90;;;;;;5072010;28;20695;-67
2022/01/22 03:59:15;;;;;;;21.57;18.10;;;4.70;99.90;;;;;;5052762;28;20192;-68
2022/01/22 04:04:24;;;;;;;21.60;17.73;;;4.90;99.90;;;;;;5060142;28;20961;-68
2022/01/22 04:07:25;;;;;;;22.37;17.80;;;4.90;99.90;;;;;;5072807;28;20463;-68
2022/01/22 04:09:44;;;;;;;24.50;18.20;;;4.80;99.90;;;;;;5073929;28;20417;-67
2022/01/22 04:12:17;;;;;;;23.80;18.30;;;4.80;99.90;;;;;;5073808;28;20477;-67
2022/01/22 04:14:51;;;;;;;26.23;19.10;;;4.90;99.90;;;;;;5070883;28;20547;-68
2022/01/22 04:17:25;;;;;;;24.40;18.13;;;4.90;99.90;;;;;;5073373;28;20437;-68
2022/01/22 04:25:23;;;;;;;27.70;19.33;;;4.90;99.90;;;;;;5071999;28;20812;-67
2022/01/22 04:27:48;;;;;;;23.30;18.20;;;4.80;99.90;;;;;;5071678;28;20426;-67
2022/01/22 04:30:14;;;;;;;28.00;18.63;;;4.80;99.90;;;;;;5070128;28;20499;-68
2022/01/22 04:32:39;;;;;;;25.00;19.03;;;4.80;99.90;;;;;;5071235;28;20182;-66
2022/01/22 04:35:06;;;;;;;26.40;19.00;;;4.80;99.90;;;;;;5071302;28;20179;-67
2022/01/22 04:37:31;;;;;;;25.17;18.83;;;4.70;99.90;;;;;;5071117;28;20202;-67
2022/01/22 04:39:57;;;;;;;28.17;20.10;;;4.80;99.90;;;;;;5060194;28;20458;-67
2022/01/22 04:42:24;;;;;;;23.80;18.43;;;4.90;99.90;;;;;;5051490;28;20203;-67
2022/01/22 04:45:02;;;;;;;24.77;18.90;;;5.00;99.90;;;;;;5052134;28;20563;-67
2022/01/22 04:47:45;;;;;;;26.73;19.00;;;5.00;99.90;;;;;;5053080;28;20405;-67
2022/01/22 04:55:36;;;;;;;30.53;21.67;;;5.10;99.90;;;;;;5057062;28;20452;-66
2022/01/22 04:58:03;;;;;;;30.97;21.07;;;5.10;99.90;;;;;;5056984;28;20956;-68
2022/01/22 05:00:31;;;;;;;28.07;20.27;;;5.00;99.90;;;;;;5056733;28;20441;-68
2022/01/22 05:02:57;;;;;;;30.10;22.37;;;5.10;99.90;;;;;;5056826;28;20779;-68
2022/01/22 05:05:23;;;;;;;29.43;21.50;;;5.10;99.90;;;;;;5057167;28;20443;-68
2022/01/22 05:07:48;;;;;;;29.80;20.80;;;5.10;99.90;;;;;;5055267;28;20417;-68
2022/01/22 05:10:14;;;;;;;31.73;22.00;;;5.20;99.90;;;;;;5056470;28;20178;-67
2022/01/22 05:12:40;;;;;;;33.23;22.10;;;5.30;99.90;;;;;;5056249;28;20583;-68
2022/01/22 05:15:06;;;;;;;30.40;22.30;;;5.30;99.90;;;;;;5056471;28;20239;-68
2022/01/22 05:17:35;;;;;;;30.70;20.30;;;5.40;99.90;;;;;;5056468;28;20210;-69
2022/01/22 05:20:09;;;;;;;29.80;21.37;;;5.50;99.90;;;;;;5056598;28;20428;-67
2022/01/22 05:22:59;;;;;;;31.77;20.53;;;5.50;99.90;;;;;;5070580;28;20429;-67
2022/01/22 05:25:36;;;;;;;25.40;19.53;;;5.50;99.90;;;;;;5076183;28;20384;-68
2022/01/22 05:38:31;;;;;;;28.80;20.70;;;5.70;99.90;;;;;;5076493;28;20414;-68
2022/01/22 05:40:57;;;;;;;28.60;20.70;;;5.80;99.90;;;;;;5076189;28;20416;-68
2022/01/22 05:43:22;;;;;;;27.83;19.53;;;5.70;99.90;;;;;;5073918;28;20462;-68
2022/01/22 05:45:48;;;;;;;26.87;19.83;;;5.70;99.90;;;;;;5075502;28;20180;-68
2022/01/22 05:48:13;;;;;;;28.73;19.50;;;5.70;99.90;;;;;;5075965;28;20177;-68
2022/01/22 05:50:50;;;;;;;27.73;19.20;;;5.70;99.90;;;;;;5075000;28;20268;-68
2022/01/22 06:01:15;;;;;;;26.37;19.60;;;5.80;99.90;;;;;;5075474;28;21034;-68
2022/01/22 06:03:41;;;;;;;24.60;18.13;;;5.80;99.90;;;;;;5073749;28;20497;-68
2022/01/22 06:06:06;;;;;;;29.80;20.50;;;5.80;99.90;;;;;;5075068;28;20917;-68
2022/01/22 06:08:41;;;;;;;29.83;20.20;;;5.80;99.90;;;;;;5070656;28;20695;-67
2022/01/22 06:11:09;;;;;;;29.77;20.87;;;5.80;99.90;;;;;;5055203;28;20158;-68
2022/01/22 06:13:45;;;;;;;32.00;20.43;;;5.80;99.90;;;;;;5054929;28;20429;-67
2022/01/22 06:16:12;;;;;;;28.53;20.70;;;5.80;99.90;;;;;;5051874;28;20482;-68
2022/01/22 06:18:38;;;;;;;28.50;20.27;;;5.90;99.90;;;;;;5048810;28;20503;-68
2022/01/22 06:21:04;;;;;;;26.63;20.10;;;5.70;99.90;;;;;;5054777;28;20421;-67
2022/01/22 06:23:30;;;;;;;32.20;21.97;;;5.70;99.90;;;;;;5050288;28;20436;-68
2022/01/22 06:26:00;;;;;;;33.17;22.50;;;5.80;99.90;;;;;;5050934;28;20455;-68
2022/01/22 06:28:26;;;;;;;31.10;21.10;;;5.80;99.90;;;;;;5047402;28;20425;-68
2022/01/22 06:30:52;;;;;;;34.20;22.20;;;5.80;99.90;;;;;;5061828;28;20450;-67
2022/01/22 06:33:18;;;;;;;33.20;22.30;;;5.80;99.90;;;;;;5054239;28;20541;-68
2022/01/22 06:35:44;;;;;;;31.63;21.43;;;5.80;99.90;;;;;;5054024;28;20205;-67
2022/01/22 06:38:10;;;;;;;33.43;22.17;;;5.90;99.90;;;;;;5068726;22;20500;-70
2022/01/22 06:43:01;;;;;;;36.03;23.73;;;5.90;99.90;;;;;;5011702;28;20472;-70
2022/01/22 06:45:26;;;;;;;35.13;23.67;;;5.90;99.90;;;;;;5011387;28;20174;-70
2022/01/22 06:47:52;;;;;;;37.17;24.80;;;6.00;99.90;;;;;;5011399;28;20568;-69
2022/01/22 06:50:19;;;;;;;39.37;25.53;;;6.00;99.90;;;;;;5011512;28;20593;-69
2022/01/22 06:52:45;;;;;;;35.20;24.53;;;6.00;99.90;;;;;;5029702;28;20209;-69
2022/01/22 06:55:14;;;;;;;35.17;23.77;;;6.10;99.90;;;;;;5030981;28;20421;-70
2022/01/22 06:57:40;;;;;;;35.90;22.50;;;6.10;99.90;;;;;;5012863;28;20455;-70
2022/01/22 07:00:06;;;;;;;31.27;21.80;;;6.10;99.90;;;;;;5031362;28;20424;-70
2022/01/22 07:02:32;;;;;;;30.90;22.00;;;6.20;99.90;;;;;;5029455;28;20193;-70
2022/01/22 07:04:58;;;;;;;32.17;21.63;;;6.20;99.90;;;;;;5004258;28;20470;-71
2022/01/22 07:07:24;;;;;;;35.13;22.30;;;6.20;99.90;;;;;;4999728;28;20731;-70
2022/01/22 07:09:50;;;;;;;35.60;22.40;;;6.10;99.90;;;;;;5020167;28;20537;-70
2022/01/22 07:12:15;;;;;;;33.27;22.33;;;6.10;99.90;;;;;;5014432;28;20210;-70
2022/01/22 07:14:42;;;;;;;33.90;22.13;;;6.10;99.90;;;;;;5014177;28;20545;-68
2022/01/22 07:17:08;;;;;;;30.40;20.77;;;6.10;99.90;;;;;;5012481;28;21005;-70
2022/01/22 07:19:41;;;;;;;34.33;22.43;;;6.10;99.90;;;;;;5002980;28;20465;-69
2022/01/22 07:22:20;;;;;;;32.20;21.80;;;6.10;99.90;;;;;;5003447;28;20488;-69
2022/01/22 07:24:46;;;;;;;36.27;22.10;;;6.10;99.90;;;;;;5009754;28;20540;-71
2022/01/22 07:27:12;;;;;;;38.50;23.73;;;6.10;99.90;;;;;;5022650;28;20528;-71
2022/01/22 07:29:37;;;;;;;36.80;23.40;;;6.20;99.90;;;;;;5018771;28;20225;-68
2022/01/22 07:32:10;;;;;;;36.60;23.57;;;6.10;99.90;;;;;;5026111;28;20448;-69
2022/01/22 07:34:36;;;;;;;33.80;22.37;;;6.10;99.90;;;;;;5017409;28;20309;-69
2022/01/22 07:37:02;;;;;;;35.17;23.23;;;6.10;99.90;;;;;;5019920;28;20588;-71
2022/01/22 07:39:28;;;;;;;43.90;25.97;;;6.00;99.90;;;;;;4960647;28;1125010;-70
2022/01/22 07:41:53;;;;;;;41.43;24.97;;;5.90;99.90;;;;;;5023869;28;20294;-71
2022/01/22 07:44:19;;;;;;;40.30;24.30;;;5.80;99.90;;;;;;5023661;28;20253;-71
2022/01/22 07:46:44;;;;;;;49.30;26.90;;;5.90;99.90;;;;;;5023278;28;20215;-70
2022/01/22 07:49:10;;;;;;;39.60;24.97;;;6.00;99.90;;;;;;5021022;28;20584;-70
2022/01/22 07:51:35;;;;;;;39.37;25.10;;;6.00;99.90;;;;;;5018158;28;20227;-70
2022/01/22 07:54:01;;;;;;;45.00;28.47;;;6.10;99.90;;;;;;5013261;28;20203;-71
2022/01/22 07:56:27;;;;;;;44.40;28.70;;;6.10;99.90;;;;;;5020096;28;20297;-71
2022/01/22 07:58:52;;;;;;;43.57;27.50;;;6.20;99.90;;;;;;5010665;28;20533;-71
2022/01/22 08:01:19;;;;;;;48.90;30.20;;;6.10;99.90;;;;;;5011030;28;20261;-69
2022/01/22 08:03:44;;;;;;;40.23;26.07;;;6.10;99.90;;;;;;4997204;28;20199;-71
2022/01/22 08:06:10;;;;;;;47.90;29.57;;;6.10;99.90;;;;;;5000027;28;20442;-71
2022/01/22 08:08:37;;;;;;;44.80;28.77;;;6.20;99.90;;;;;;5007803;28;20250;-71
2022/01/22 08:11:03;;;;;;;49.40;30.43;;;6.20;99.90;;;;;;5008463;28;20175;-71
2022/01/22 08:13:29;;;;;;;48.67;28.60;;;6.20;99.90;;;;;;4983426;28;20431;-70
2022/01/22 08:15:55;;;;;;;52.50;30.40;;;6.30;99.90;;;;;;4992181;28;20274;-70
2022/01/22 08:18:20;;;;;;;46.00;27.83;;;6.30;99.90;;;;;;5008305;28;20446;-68
2022/01/22 08:20:47;;;;;;;45.33;28.07;;;6.30;99.90;;;;;;5008583;28;20895;-69
2022/01/22 08:23:12;;;;;;;43.17;27.07;;;6.40;99.90;;;;;;5009253;28;20194;-71
2022/01/22 08:25:42;;;;;;;45.80;27.53;;;6.50;99.90;;;;;;4998694;28;20458;-70
2022/01/22 08:30:55;;;;;;;34.87;23.47;;;6.50;99.90;;;;;;5010429;28;20457;-70
2022/01/22 08:35:52;;;;;;;36.50;22.97;;;6.50;99.90;;;;;;5010326;28;20485;-71
2022/01/22 08:38:18;;;;;;;37.57;23.50;;;6.60;99.90;;;;;;5012687;28;20218;-70
2022/01/22 08:40:44;;;;;;;39.17;25.10;;;6.60;99.90;;;;;;5010986;28;20466;-70
2022/01/22 08:43:10;;;;;;;40.10;25.47;;;6.60;99.90;;;;;;5011364;28;20438;-70
2022/01/22 08:45:36;;;;;;;36.80;23.77;;;6.60;99.90;;;;;;4992608;28;20242;-69
2022/01/22 08:48:03;;;;;;;42.87;26.47;;;6.60;99.90;;;;;;5011320;28;20438;-72
2022/01/22 08:50:28;;;;;;;41.80;25.70;;;6.60;99.90;;;;;;5012031;28;20462;-71
2022/01/22 08:52:54;;;;;;;38.07;24.90;;;6.70;99.90;;;;;;5017701;28;20503;-69
2022/01/22 08:55:20;;;;;;;38.40;24.27;;;6.70;99.90;;;;;;5014713;28;20258;-69
2022/01/22 08:57:49;;;;;;;38.37;25.50;;;6.60;99.90;;;;;;4997159;28;20223;-70
2022/01/22 09:00:18;;;;;;;38.13;24.17;;;6.60;99.90;;;;;;5020309;28;20203;-70
2022/01/22 09:02:45;;;;;;;39.90;25.07;;;6.60;99.90;;;;;;5017907;28;20613;-70
2022/01/22 09:05:11;;;;;;;36.83;22.17;;;6.60;99.90;;;;;;5011675;28;20820;-69
2022/01/22 09:07:37;;;;;;;28.83;19.77;;;6.50;99.90;;;;;;5010340;28;20446;-71
2022/01/22 09:10:03;;;;;;;26.77;17.30;;;6.50;99.90;;;;;;5010645;28;20944;-71
2022/01/22 09:12:29;;;;;;;24.87;17.40;;;6.60;99.90;;;;;;5014774;28;20501;-70
2022/01/22 09:14:55;;;;;;;26.40;17.90;;;6.60;99.90;;;;;;5014269;28;20477;-71
2022/01/22 09:17:21;;;;;;;29.07;17.70;;;6.60;99.90;;;;;;5008994;28;20226;-71
2022/01/22 09:19:47;;;;;;;23.80;15.57;;;6.60;99.90;;;;;;5011130;28;20442;-71
2022/01/22 09:22:13;;;;;;;23.73;17.10;;;6.60;99.90;;;;;;5010827;28;20186;-71
2022/01/22 09:24:40;;;;;;;26.37;17.80;;;6.60;99.90;;;;;;5016796;28;20525;-71
2022/01/22 09:27:06;;;;;;;28.73;18.50;;;6.70;99.90;;;;;;5013669;28;20245;-71
2022/01/22 09:29:34;;;;;;;29.00;19.70;;;6.70;99.90;;;;;;5011878;28;20461;-71
2022/01/22 09:32:00;;;;;;;30.73;19.77;;;6.70;99.90;;;;;;5015831;28;20423;-71
2022/01/22 09:34:25;;;;;;;31.07;19.77;;;6.70;99.90;;;;;;5014947;28;20429;-71
2022/01/22 09:36:51;;;;;;;30.90;19.90;;;6.70;99.90;;;;;;5020060;28;20613;-68
2022/01/22 09:39:17;;;;;;;32.50;21.27;;;6.70;99.90;;;;;;5018371;28;21048;-69
2022/01/22 09:41:42;;;;;;;33.40;22.43;;;6.70;99.90;;;;;;5010541;28;20182;-69
2022/01/22 09:44:08;;;;;;;36.17;24.90;;;6.80;99.90;;;;;;5024871;28;20255;-70
2022/01/22 09:46:34;;;;;;;39.97;24.37;;;6.80;99.90;;;;;;5029476;28;20309;-69
2022/01/22 09:49:00;;;;;;;39.40;24.70;;;6.80;99.90;;;;;;5018163;28;20467;-69
2022/01/22 09:51:25;;;;;;;37.80;23.83;;;6.80;99.90;;;;;;5011088;28;20179;-69
2022/01/22 09:53:51;;;;;;;37.80;23.77;;;6.90;99.90;;;;;;5013184;28;20628;-69
2022/01/22 09:56:20;;;;;;;42.23;25.57;;;6.90;99.90;;;;;;5013371;28;20238;-69
2022/01/22 09:58:46;;;;;;;35.27;23.20;;;7.00;99.90;;;;;;5010045;28;20532;-69
2022/01/22 10:01:24;;;;;;;35.87;21.97;;;6.90;99.90;;;;;;5010518;28;20481;-68
2022/01/22 10:03:52;;;;;;;34.63;21.97;;;6.90;99.90;;;;;;5012541;28;20425;-68
2022/01/22 10:06:24;;;;;;;31.70;20.47;;;6.90;99.90;;;;;;5030984;28;20464;-68
2022/01/22 10:08:55;;;;;;;26.40;18.37;;;6.90;99.90;;;;;;5032167;28;20491;-69
2022/01/22 10:11:26;;;;;;;26.90;19.60;;;6.90;99.90;;;;;;5032548;28;20409;-69
2022/01/22 10:13:58;;;;;;;30.23;19.10;;;6.90;99.90;;;;;;5032387;28;20427;-69
2022/01/22 10:16:26;;;;;;;28.60;18.13;;;7.00;99.90;;;;;;5030323;28;20452;-69
2022/01/22 10:19:17;;;;;;;25.07;16.70;;;6.90;99.90;;;;;;5032150;28;20948;-69
2022/01/22 10:21:54;;;;;;;19.40;13.00;;;7.00;99.90;;;;;;5032415;28;20425;-70
2022/01/22 10:24:40;;;;;;;19.47;14.53;;;7.00;99.90;;;;;;5014073;28;20440;-69
2022/01/22 10:27:21;;;;;;;21.00;14.50;;;7.00;99.90;;;;;;4995587;28;20434;-70
2022/01/22 10:29:52;;;;;;;17.63;12.77;;;7.00;99.90;;;;;;5012196;28;20434;-70
2022/01/22 10:32:20;;;;;;;18.30;13.00;;;6.90;99.90;;;;;;5012336;28;20414;-68
2022/01/22 10:34:46;;;;;;;16.40;12.33;;;6.90;99.90;;;;;;5012312;28;20448;-69
2022/01/22 10:37:11;;;;;;;16.93;12.60;;;6.90;99.90;;;;;;5012479;28;20881;-70
2022/01/22 10:39:37;;;;;;;20.77;15.27;;;6.70;99.90;;;;;;5021813;28;20214;-68
2022/01/22 10:42:18;;;;;;;22.20;15.03;;;6.40;99.90;;;;;;5031860;28;20200;-69
2022/01/22 10:44:48;;;;;;;22.40;15.33;;;6.30;99.90;;;;;;5031768;28;20175;-69
2022/01/22 10:47:18;;;;;;;22.30;15.93;;;6.40;99.90;;;;;;5031095;28;20419;-70
2022/01/22 10:49:44;;;;;;;26.93;19.43;;;6.40;99.90;;;;;;5029724;28;20450;-69
2022/01/22 10:52:11;;;;;;;29.90;18.83;;;6.40;99.90;;;;;;5014149;28;20421;-69
2022/01/22 10:54:38;;;;;;;30.17;20.20;;;6.50;99.90;;;;;;5031728;28;20193;-69
2022/01/22 10:57:25;;;;;;;31.43;20.50;;;6.50;99.90;;;;;;5031011;28;20894;-69
2022/01/22 10:59:55;;;;;;;34.87;20.37;;;6.50;99.90;;;;;;5010536;28;21147;-68
2022/01/22 11:02:36;;;;;;;37.03;21.37;;;6.60;99.90;;;;;;5011627;28;20426;-70
2022/01/22 11:05:03;;;;;;;40.40;24.20;;;6.60;99.90;;;;;;5011343;28;20465;-68
2022/01/22 11:07:29;;;;;;;39.90;24.87;;;6.70;99.90;;;;;;5010873;28;20895;-69
2022/01/22 11:09:55;;;;;;;38.73;25.57;;;6.80;99.90;;;;;;5011072;28;20445;-69
2022/01/22 11:12:21;;;;;;;46.47;28.97;;;6.80;99.90;;;;;;5012465;28;20527;-69
2022/01/22 11:14:46;;;;;;;48.80;29.97;;;6.60;99.90;;;;;;5010981;28;20480;-69
2022/01/22 11:17:13;;;;;;;49.30;28.27;;;6.60;99.90;;;;;;5011270;28;20329;-68
2022/01/22 11:19:41;;;;;;;48.47;29.00;;;6.60;99.90;;;;;;5008306;28;20625;-68
2022/01/22 11:22:09;;;;;;;49.87;29.30;;;6.70;99.90;;;;;;5010373;28;20438;-69
2022/01/22 11:24:38;;;;;;;47.30;28.90;;;6.80;99.90;;;;;;5009035;28;20421;-70
2022/01/22 11:27:05;;;;;;;53.47;30.90;;;6.60;99.90;;;;;;4996666;28;20508;-69
2022/01/22 11:30:00;;;;;;;44.60;27.40;;;6.60;99.90;;;;;;5009483;28;20461;-69
2022/01/22 11:32:29;;;;;;;46.10;27.20;;;6.60;99.90;;;;;;5009771;28;20853;-68
2022/01/22 11:35:02;;;;;;;47.50;24.70;;;6.70;99.90;;;;;;5009061;28;20464;-69
2022/01/22 11:37:47;;;;;;;46.70;28.27;;;6.80;99.90;;;;;;5010339;28;20462;-68
2022/01/22 11:40:21;;;;;;;40.50;25.77;;;6.90;99.90;;;;;;5010656;28;20433;-68
2022/01/22 11:42:55;;;;;;;42.80;24.93;;;7.00;99.90;;;;;;5012200;28;20447;-69
2022/01/22 11:45:36;;;;;;;41.77;23.20;;;6.90;99.90;;;;;;5010895;28;20502;-68
2022/01/22 11:48:18;;;;;;;37.50;22.80;;;6.90;99.90;;;;;;5010416;28;20970;-69
2022/01/22 11:50:49;;;;;;;34.63;22.27;;;6.90;99.90;;;;;;5010978;28;20410;-69
2022/01/22 11:53:22;;;;;;;31.70;20.07;;;6.80;99.90;;;;;;5012153;28;20955;-68
2022/01/22 11:56:10;;;;;;;31.70;20.43;;;6.70;99.90;;;;;;5010808;28;20437;-69
2022/01/22 11:58:57;;;;;;;35.07;20.90;;;6.70;99.90;;;;;;5013268;28;20539;-69
2022/01/22 12:01:52;;;;;;;36.93;21.40;;;6.80;99.90;;;;;;5015027;28;20414;-69
2022/01/22 12:04:28;;;;;;;25.13;17.27;;;6.80;99.90;;;;;;5016056;28;20422;-70
2022/01/22 12:07:02;;;;;;;28.60;18.60;;;6.80;99.90;;;;;;5014523;28;20466;-69
2022/01/22 12:09:53;;;;;;;27.20;18.80;;;6.80;99.90;;;;;;5014776;28;20437;-70
2022/01/22 12:15:16;;;;;;;27.60;16.33;;;6.80;99.90;;;;;;5015850;28;20421;-71
2022/01/22 12:17:54;;;;;;;26.27;17.63;;;6.70;99.90;;;;;;5013904;28;20462;-69
2022/01/22 12:23:04;;;;;;;25.63;17.10;;;6.50;99.90;;;;;;5014514;28;20418;-70
2022/01/22 12:25:30;;;;;;;19.53;13.20;;;6.50;99.90;;;;;;5014893;28;20430;-70
2022/01/22 12:27:57;;;;;;;21.70;13.53;;;6.50;99.90;;;;;;5003084;28;20522;-69
2022/01/22 12:30:39;;;;;;;23.70;14.30;;;6.60;99.90;;;;;;4994899;28;20192;-69
2022/01/22 12:33:12;;;;;;;23.40;14.70;;;6.70;99.90;;;;;;4997342;28;20421;-69
2022/01/22 12:35:46;;;;;;;20.83;13.33;;;6.70;99.90;;;;;;5010299;28;20978;-69
2022/01/22 12:38:44;;;;;;;18.40;13.43;;;6.70;99.90;;;;;;5013573;28;20973;-69
2022/01/22 12:41:15;;;;;;;21.13;13.47;;;6.70;99.90;;;;;;4999357;28;20417;-69
2022/01/22 12:43:44;;;;;;;18.87;13.50;;;6.70;99.90;;;;;;5014146;28;20827;-68
2022/01/22 12:46:09;;;;;;;20.37;12.63;;;6.80;99.90;;;;;;5013312;28;20422;-70
2022/01/22 12:48:38;;;;;;;22.63;13.90;;;6.80;99.90;;;;;;5014071;28;20500;-70
2022/01/22 12:51:06;;;;;;;22.50;14.40;;;6.80;99.90;;;;;;4988068;28;20207;-69
2022/01/22 12:53:33;;;;;;;21.90;14.70;;;6.80;99.90;;;;;;4993909;28;20786;-70
2022/01/22 12:58:28;;;;;;;27.50;16.40;;;6.80;99.90;;;;;;4993289;28;20446;-69
2022/01/22 13:01:28;;;;;;;19.83;14.13;;;6.80;99.90;;;;;;5006879;28;20438;-69
2022/01/22 13:03:55;;;;;;;23.50;15.03;;;6.90;99.90;;;;;;4971170;22;20511;-66
2022/01/22 13:06:26;;;;;;;18.37;13.07;;;6.90;99.90;;;;;;5037162;28;20425;-67
2022/01/22 13:08:56;;;;;;;23.30;15.07;;;6.70;99.90;;;;;;5042495;28;20782;-67
2022/01/22 13:11:25;;;;;;;22.87;13.93;;;6.80;99.90;;;;;;5055596;28;20417;-66
2022/01/22 13:13:51;;;;;;;21.90;13.30;;;6.80;99.90;;;;;;5052272;28;20409;-67
2022/01/22 13:16:18;;;;;;;24.13;14.93;;;6.80;99.90;;;;;;5019800;28;20450;-66
2022/01/22 13:18:56;;;;;;;22.60;14.50;;;6.90;99.90;;;;;;5031257;28;20185;-67
2022/01/22 13:21:22;;;;;;;19.80;14.33;;;6.80;99.90;;;;;;5022287;28;20410;-66
2022/01/22 13:24:07;;;;;;;21.93;14.40;;;6.80;99.90;;;;;;5025832;28;20861;-66
2022/01/22 13:26:47;;;;;;;18.27;12.73;;;6.70;99.90;;;;;;5045117;28;20412;-67
2022/01/22 13:29:22;;;;;;;18.47;12.93;;;6.70;99.90;;;;;;5028620;28;20412;-67
2022/01/22 13:32:09;;;;;;;16.27;12.43;;;6.70;99.90;;;;;;5047615;28;20514;-67
2022/01/22 13:35:20;;;;;;;18.47;12.87;;;6.70;99.90;;;;;;5036162;28;20441;-67
2022/01/22 13:45:03;;;;;;;15.00;9.97;;;6.60;99.90;;;;;;5036217;28;20926;-68
2022/01/22 13:49:26;;;;;;;13.57;10.30;;;6.60;99.90;;;;;;5050503;28;20455;-67
2022/01/22 13:52:10;;;;;;;15.07;11.60;;;6.60;99.90;;;;;;5054146;28;20421;-68
2022/01/22 13:54:45;;;;;;;17.40;11.70;;;6.60;99.90;;;;;;5059050;28;20455;-68
2022/01/22 13:57:15;;;;;;;22.90;13.53;;;6.50;99.90;;;;;;5050815;28;20536;-70
2022/01/22 13:59:43;;;;;;;21.37;15.10;;;6.50;99.90;;;;;;5035669;28;20808;-67
2022/01/22 14:05:07;;;;;;;22.40;15.17;;;6.50;99.90;;;;;;5043983;28;20455;-66
2022/01/22 14:07:45;;;;;;;21.77;14.07;;;6.60;99.90;;;;;;5040405;28;20417;-66
2022/01/22 14:10:20;;;;;;;20.43;15.90;;;6.60;99.90;;;;;;5053351;28;20525;-67
2022/01/22 14:12:48;;;;;;;23.70;17.90;;;6.50;99.90;;;;;;5068794;28;20408;-66
2022/01/22 14:15:27;;;;;;;29.43;18.27;;;6.50;99.90;;;;;;5055337;28;20437;-67
2022/01/22 14:18:14;;;;;;;29.37;19.70;;;6.50;99.90;;;;;;5048893;28;20476;-66
2022/01/22 14:20:45;;;;;;;27.73;17.80;;;6.60;99.90;;;;;;5020731;28;20509;-66
2022/01/22 14:23:22;;;;;;;30.90;20.10;;;6.60;99.90;;;;;;5050636;28;20429;-68
2022/01/22 14:25:55;;;;;;;26.30;19.30;;;6.50;99.90;;;;;;5039092;28;20426;-68
2022/01/22 14:28:37;;;;;;;27.57;18.90;;;6.50;99.90;;;;;;5035184;28;20470;-67